MSC Maria Saveria — 3FLE8 — position and weather

sailwx.info

Track history (hours):
 
Tides and Currents Weather Stations Pressure Air Temp Water Temp Dewpoint Dewpoint Depression Visibility Wind Speed Wind Dir Waves Ship Positions

MSC Maria Saveria

Last reported at 2016-Feb-12 00:08 UTC. Time now 2016-Feb-12 03:40 UTC.
Position N 22°39' E 113°41'.

Length 366 m; draft 12.4 m.

Type: Ship (hazmat cat A). MMSI: 372400000.

Date/timePositionNaut miles runAvg speedWind from/ knotsBaromVisibWave heightAir tempDewpointWater temp
2016-Feb-12 00:08N 22°39' E 113°41'1810.6
2016-Feb-11 22:24N 22°21' E 113°47'1113.0
2016-Feb-11 21:33N 22°11' E 113°50'  
2016-Feb-07 16:21N 01°15' E 104°04'1114.4
2016-Feb-07 15:34N 01°12' E 103°53'8 7.6
2016-Feb-07 14:33N 01°16' E 103°46'1 0.9
2016-Feb-07 13:21N 01°17' E 103°45'0 0.0
2016-Feb-07 12:33N 01°17' E 103°45'0 0.0
2016-Feb-07 11:33N 01°17' E 103°45'0 0.0
2016-Feb-07 08:24N 01°17' E 103°45'0 0.0
2016-Feb-07 07:27N 01°17' E 103°45'0 0.0
2016-Feb-07 05:33N 01°17' E 103°45'0 0.0
2016-Feb-07 02:21N 01°17' E 103°45'0 0.0
2016-Feb-07 01:33N 01°17' E 103°45'0 0.0
2016-Feb-07 00:33N 01°17' E 103°45'0 0.0
2016-Feb-06 23:33N 01°17' E 103°45'0 0.0
2016-Feb-06 22:33N 01°17' E 103°45'0 0.0
2016-Feb-06 20:33N 01°17' E 103°45'0 0.0
2016-Feb-06 19:15N 01°17' E 103°45'0 0.0
2016-Feb-06 18:33N 01°17' E 103°45'0 0.0
2016-Feb-06 17:33N 01°17' E 103°45'0 0.0
2016-Feb-06 16:33N 01°17' E 103°45'0 0.0
2016-Feb-06 14:18N 01°17' E 103°45'0 0.0
2016-Feb-06 13:27N 01°17' E 103°45'0 0.0
2016-Feb-06 12:21N 01°17' E 103°45'0 0.0
2016-Feb-06 11:27N 01°17' E 103°45'0 0.0
2016-Feb-06 10:33N 01°17' E 103°45'0 0.5
2016-Feb-06 09:33N 01°16' E 103°46'3 2.6
2016-Feb-06 08:33N 01°15' E 103°44'7 6.2
2016-Feb-06 07:26N 01°12' E 103°37'3 2.9
2016-Feb-06 06:32N 01°12' E 103°34'  
Track history (hours):
 
Tides and Currents Weather Stations Pressure Air Temp Water Temp Dewpoint Dewpoint Depression Visibility Wind Speed Wind Dir Waves Ship Positions

MSC Maria Saveria

Last reported at 2016-Feb-12 00:08 UTC. Time now 2016-Feb-12 03:40 UTC.
Position N 22°39' E 113°41'.

Length 366 m; draft 12.4 m.

Type: Ship (hazmat cat A). MMSI: 372400000.

Date/timePositionNaut miles runAvg speedWind from/ knotsBaromVisibWave heightAir tempDewpointWater temp
2016-Feb-12 00:08N 22°39' E 113°41'1810.6
2016-Feb-11 22:24N 22°21' E 113°47'1113.0
2016-Feb-11 21:33N 22°11' E 113°50'  
2016-Feb-07 16:21N 01°15' E 104°04'1114.4
2016-Feb-07 15:34N 01°12' E 103°53'8 7.6
2016-Feb-07 14:33N 01°16' E 103°46'1 0.9
2016-Feb-07 13:21N 01°17' E 103°45'0 0.0
2016-Feb-07 12:33N 01°17' E 103°45'0 0.0
2016-Feb-07 11:33N 01°17' E 103°45'0 0.0
2016-Feb-07 08:24N 01°17' E 103°45'0 0.0
2016-Feb-07 07:27N 01°17' E 103°45'0 0.0
2016-Feb-07 05:33N 01°17' E 103°45'0 0.0
2016-Feb-07 02:21N 01°17' E 103°45'0 0.0
2016-Feb-07 01:33N 01°17' E 103°45'0 0.0
2016-Feb-07 00:33N 01°17' E 103°45'0 0.0
2016-Feb-06 23:33N 01°17' E 103°45'0 0.0
2016-Feb-06 22:33N 01°17' E 103°45'0 0.0
2016-Feb-06 20:33N 01°17' E 103°45'0 0.0
2016-Feb-06 19:15N 01°17' E 103°45'0 0.0
2016-Feb-06 18:33N 01°17' E 103°45'0 0.0
2016-Feb-06 17:33N 01°17' E 103°45'0 0.0
2016-Feb-06 16:33N 01°17' E 103°45'0 0.0
2016-Feb-06 14:18N 01°17' E 103°45'0 0.0
2016-Feb-06 13:27N 01°17' E 103°45'0 0.0
2016-Feb-06 12:21N 01°17' E 103°45'0 0.0
2016-Feb-06 11:27N 01°17' E 103°45'0 0.0
2016-Feb-06 10:33N 01°17' E 103°45'0 0.5
2016-Feb-06 09:33N 01°16' E 103°46'3 2.6
2016-Feb-06 08:33N 01°15' E 103°44'7 6.2
2016-Feb-06 07:26N 01°12' E 103°37'3 2.9
2016-Feb-06 06:32N 01°12' E 103°34'  

Dump ship's entire track history